Time;durP1;ratioP1;P1;durP2;ratioP2;P2;SDS_P1;SDS_P2;PMS_P1;PMS_P2;Temp;Humidity;BMP_temperature;BMP_pressure;BME280_temperature;BME280_humidity;BME280_pressure;Samples;Min_cycle;Max_cycle;Signal;HPM_P1;HPM_P2
2022/02/27 00:01:02;;;;;;;;;;;4.50;77.50;;;;;;5070503;28;20157;-79
2022/02/27 00:03:28;;;;;;;22.25;7.05;;;4.50;77.30;;;;;;5070314;28;19918;-78
2022/02/27 00:05:53;;;;;;;;;;;4.50;77.90;;;;;;5073463;28;20040;-79
2022/02/27 00:08:19;;;;;;;23.77;8.38;;;4.50;76.80;;;;;;5072261;28;19908;-79
2022/02/27 00:10:45;;;;;;;26.55;8.20;;;4.60;77.20;;;;;;5070563;28;20027;-79
2022/02/27 00:13:10;;;;;;;29.17;8.70;;;4.50;77.30;;;;;;5072265;28;20063;-79
2022/02/27 00:15:36;;;;;;;16.40;7.60;;;4.50;77.50;;;;;;5073168;28;20032;-79
2022/02/27 00:18:01;;;;;;;;;;;4.50;77.60;;;;;;5075700;28;20032;-78
2022/02/27 00:20:27;;;;;;;17.30;7.80;;;4.50;78.30;;;;;;5078285;28;20451;-79
2022/02/27 00:22:53;;;;;;;25.75;9.00;;;4.40;79.40;;;;;;5076204;28;20016;-79
2022/02/27 00:25:18;;;;;;;;;;;4.40;78.90;;;;;;5076532;28;20044;-79
2022/02/27 00:27:44;;;;;;;23.23;8.88;;;4.40;80.10;;;;;;5080701;28;20335;-80
2022/02/27 00:30:10;;;;;;;19.42;6.95;;;4.40;80.60;;;;;;5080533;28;20056;-79
2022/02/27 00:32:38;;;;;;;17.38;8.00;;;4.40;79.30;;;;;;5076747;28;20082;-79
2022/02/27 00:35:05;;;;;;;24.17;7.72;;;4.40;79.70;;;;;;5073970;28;20036;-78
2022/02/27 00:37:32;;;;;;;20.67;8.80;;;4.30;80.80;;;;;;5074746;28;20028;-79
2022/02/27 00:39:57;;;;;;;19.15;7.40;;;4.30;81.00;;;;;;5074907;28;20103;-78
2022/02/27 00:42:23;;;;;;;20.27;8.27;;;4.30;80.20;;;;;;5074277;28;20489;-78
2022/02/27 00:44:48;;;;;;;20.90;7.25;;;4.40;80.30;;;;;;5074224;28;20055;-78
2022/02/27 00:47:14;;;;;;;;;;;4.40;80.00;;;;;;5072587;28;20512;-78
2022/02/27 00:49:40;;;;;;;20.42;7.25;;;4.30;79.50;;;;;;5071699;28;20536;-78
2022/02/27 00:52:06;;;;;;;22.80;8.60;;;4.40;80.10;;;;;;5071684;28;20029;-79
2022/02/27 00:54:32;;;;;;;22.83;8.45;;;4.30;79.90;;;;;;5072449;28;20086;-77
2022/02/27 00:56:57;;;;;;;;;;;4.30;78.70;;;;;;5072796;28;20451;-77
2022/02/27 00:59:23;;;;;;;20.33;7.80;;;4.30;79.20;;;;;;5073546;28;19908;-78
2022/02/27 01:01:48;;;;;;;;;;;4.30;78.30;;;;;;5072399;28;20031;-78
2022/02/27 01:04:14;;;;;;;18.83;7.00;;;4.30;78.90;;;;;;5071768;28;19911;-78
2022/02/27 01:06:39;;;;;;;;;;;4.20;77.80;;;;;;5072182;28;20036;-78
2022/02/27 01:09:05;;;;;;;18.85;7.93;;;4.20;76.80;;;;;;5071793;28;19912;-78
2022/02/27 01:11:33;;;;;;;16.77;6.38;;;4.30;77.60;;;;;;5071923;28;20077;-78
2022/02/27 01:14:01;;;;;;;19.13;6.18;;;4.30;75.00;;;;;;5071431;28;20040;-79
2022/02/27 01:16:26;;;;;;;18.50;7.68;;;4.40;74.10;;;;;;5072832;28;20083;-77
2022/02/27 01:18:52;;;;;;;16.85;6.95;;;4.20;75.50;;;;;;5072470;28;20620;-77
2022/02/27 01:21:18;;;;;;;15.20;6.53;;;4.30;75.50;;;;;;5072559;28;20032;-79
2022/02/27 01:23:45;;;;;;;25.13;7.25;;;4.20;75.20;;;;;;5072883;28;20028;-78
2022/02/27 01:26:11;;;;;;;18.80;7.43;;;4.30;74.30;;;;;;5070769;28;20489;-78
2022/02/27 01:28:37;;;;;;;19.15;6.88;;;4.40;72.60;;;;;;5070804;28;20048;-78
2022/02/27 01:31:03;;;;;;;;;;;4.30;73.80;;;;;;5072674;28;20028;-77
2022/02/27 01:33:29;;;;;;;12.77;5.30;;;4.20;73.60;;;;;;5074462;28;20292;-78
2022/02/27 01:35:54;;;;;;;;;;;4.40;72.30;;;;;;5074339;28;20024;-78
2022/02/27 01:38:20;;;;;;;18.25;7.07;;;4.30;71.80;;;;;;5075522;28;20341;-79
2022/02/27 01:40:46;;;;;;;22.27;6.63;;;4.30;72.30;;;;;;5074763;28;20854;-79
2022/02/27 01:43:11;;;;;;;17.73;6.50;;;4.30;71.80;;;;;;5075588;28;20038;-78
2022/02/27 01:45:37;;;;;;;;;;;4.30;72.50;;;;;;5078138;28;20029;-79
2022/02/27 01:48:03;;;;;;;19.85;6.38;;;4.30;70.50;;;;;;5073778;28;19908;-79
2022/02/27 01:50:29;;;;;;;15.75;5.78;;;4.30;72.00;;;;;;5071979;28;20025;-79
2022/02/27 01:52:54;;;;;;;18.70;7.18;;;4.30;70.80;;;;;;5074321;28;20468;-79
2022/02/27 01:55:21;;;;;;;15.70;5.53;;;4.30;71.30;;;;;;5073971;28;20864;-79
2022/02/27 01:57:46;;;;;;;16.25;5.85;;;4.20;73.10;;;;;;5074019;28;20025;-78
2022/02/27 02:00:13;;;;;;;19.27;5.32;;;4.20;72.40;;;;;;5073285;28;20033;-79
2022/02/27 02:02:41;;;;;;;15.05;5.40;;;4.30;69.90;;;;;;5072900;28;20588;-80
2022/02/27 02:05:07;;;;;;;12.02;3.95;;;4.50;67.80;;;;;;5072821;28;20028;-78
2022/02/27 02:07:33;;;;;;;;;;;4.60;65.70;;;;;;5073351;28;20036;-78
2022/02/27 02:09:59;;;;;;;15.60;5.45;;;4.60;66.10;;;;;;5071955;28;20402;-78
2022/02/27 02:12:25;;;;;;;10.88;4.65;;;4.60;66.20;;;;;;5073155;28;20021;-78
2022/02/27 02:14:50;;;;;;;;;;;4.60;65.30;;;;;;5073453;28;20040;-79
2022/02/27 02:17:16;;;;;;;12.60;4.40;;;4.60;64.70;;;;;;5073061;28;19904;-78
2022/02/27 02:19:42;;;;;;;16.30;5.53;;;4.70;64.40;;;;;;5084290;28;20116;-79
2022/02/27 02:22:07;;;;;;;9.52;4.60;;;4.70;64.30;;;;;;5083154;28;20028;-79
2022/02/27 02:24:33;;;;;;;17.27;4.65;;;4.70;63.80;;;;;;5071118;28;20078;-78
2022/02/27 02:26:59;;;;;;;;;;;4.90;63.10;;;;;;5071754;28;20032;-78
2022/02/27 02:29:25;;;;;;;15.50;4.70;;;4.80;62.40;;;;;;5073331;28;19923;-80
2022/02/27 02:31:54;;;;;;;14.25;5.35;;;4.80;62.60;;;;;;5073685;28;20115;-79
2022/02/27 02:34:21;;;;;;;14.98;3.83;;;4.90;62.60;;;;;;5074004;28;20484;-80
2022/02/27 02:36:47;;;;;;;13.20;4.75;;;4.90;61.60;;;;;;5073030;28;20473;-79
2022/02/27 02:39:17;;;;;;;;;;;4.90;62.00;;;;;;5075041;28;20048;-79
2022/02/27 02:41:43;;;;;;;8.93;3.53;;;4.90;61.90;;;;;;5074761;28;20342;-79
2022/02/27 02:44:10;;;;;;;12.65;3.90;;;4.90;61.40;;;;;;5074317;28;20021;-77
2022/02/27 02:46:36;;;;;;;17.08;4.60;;;4.90;61.30;;;;;;5073212;28;20493;-79
2022/02/27 02:49:04;;;;;;;19.17;5.03;;;5.00;60.80;;;;;;5074643;28;20047;-78
2022/02/27 02:51:30;;;;;;;9.38;3.78;;;5.00;60.90;;;;;;5071950;28;20071;-77
2022/02/27 02:53:56;;;;;;;15.35;4.80;;;5.00;61.00;;;;;;5055773;28;20497;-78
2022/02/27 02:56:22;;;;;;;;;;;5.00;60.50;;;;;;5071961;28;20068;-77
2022/02/27 02:58:47;;;;;;;10.93;4.05;;;4.90;60.40;;;;;;5071166;28;19951;-79
2022/02/27 03:01:16;;;;;;;10.93;3.53;;;5.00;60.50;;;;;;5070711;28;20025;-78
2022/02/27 03:03:44;;;;;;;13.07;3.75;;;4.90;60.80;;;;;;5071604;28;20053;-77
2022/02/27 03:06:11;;;;;;;10.25;3.75;;;4.90;60.80;;;;;;5074108;28;20451;-79
2022/02/27 03:08:41;;;;;;;14.48;4.30;;;4.90;60.10;;;;;;5071980;28;20036;-79
2022/02/27 03:11:07;;;;;;;10.50;4.05;;;4.90;60.30;;;;;;5072894;28;20036;-79
2022/02/27 03:13:34;;;;;;;19.40;4.57;;;4.90;60.40;;;;;;5074028;28;20028;-78
2022/02/27 03:16:00;;;;;;;9.20;3.70;;;4.90;60.10;;;;;;5074773;28;20029;-78
2022/02/27 03:18:25;;;;;;;9.80;3.25;;;5.00;60.20;;;;;;5073974;28;20030;-79
2022/02/27 03:20:51;;;;;;;;;;;4.90;59.50;;;;;;5072550;28;20127;-78
2022/02/27 03:23:16;;;;;;;19.70;2.78;;;5.00;59.50;;;;;;5073311;28;19919;-79
2022/02/27 03:25:43;;;;;;;;;;;5.00;59.60;;;;;;5073237;28;20536;-79
2022/02/27 03:28:09;;;;;;;10.65;3.30;;;5.00;59.70;;;;;;5072546;28;19939;-79
2022/02/27 03:30:36;;;;;;;;;;;4.90;58.90;;;;;;5072545;28;20052;-79
2022/02/27 03:33:03;;;;;;;14.13;3.90;;;5.00;59.00;;;;;;5073566;28;19908;-79
2022/02/27 03:35:29;;;;;;;18.48;4.72;;;5.00;59.10;;;;;;5073230;28;20028;-79
2022/02/27 03:37:55;;;;;;;13.90;3.95;;;4.90;59.00;;;;;;5072489;28;20031;-79
2022/02/27 03:40:21;;;;;;;;;;;4.90;59.10;;;;;;5073332;28;20032;-78
2022/02/27 03:42:47;;;;;;;11.80;3.97;;;4.90;58.80;;;;;;5072852;28;20478;-79
2022/02/27 03:45:14;;;;;;;14.63;4.28;;;4.90;58.60;;;;;;5073985;28;20024;-79
2022/02/27 03:47:43;;;;;;;9.68;3.17;;;4.90;59.20;;;;;;5073306;28;20081;-78
2022/02/27 03:50:11;;;;;;;13.90;4.18;;;4.90;59.20;;;;;;5073428;28;20115;-79
2022/02/27 03:52:36;;;;;;;11.18;3.50;;;4.80;59.20;;;;;;5078959;28;20078;-79
2022/02/27 03:55:04;;;;;;;9.93;3.47;;;4.80;59.00;;;;;;5077011;28;20024;-79
2022/02/27 03:57:30;;;;;;;9.63;3.63;;;4.80;58.70;;;;;;5077041;28;20017;-78
2022/02/27 03:59:56;;;;;;;8.85;3.50;;;4.80;59.10;;;;;;5076758;28;20559;-79
2022/02/27 04:02:21;;;;;;;10.80;3.22;;;4.90;58.70;;;;;;5076231;28;20561;-79
2022/02/27 04:04:47;;;;;;;14.63;4.40;;;4.80;59.20;;;;;;5076317;28;20078;-79
2022/02/27 04:07:13;;;;;;;9.18;3.67;;;4.80;59.70;;;;;;5077053;28;20025;-80
2022/02/27 04:09:38;;;;;;;13.95;3.67;;;4.70;59.90;;;;;;5076184;28;20503;-79
2022/02/27 04:12:04;;;;;;;10.63;3.90;;;4.60;60.20;;;;;;5078837;28;20445;-79
2022/02/27 04:14:30;;;;;;;;;;;4.60;61.00;;;;;;5080128;28;20043;-80
2022/02/27 04:16:55;;;;;;;13.30;4.20;;;4.50;62.10;;;;;;5079620;28;20411;-79
2022/02/27 04:19:21;;;;;;;11.77;4.18;;;4.40;62.00;;;;;;5078519;28;20515;-79
2022/02/27 04:21:47;;;;;;;13.25;4.35;;;4.50;62.30;;;;;;5079013;28;20041;-79
2022/02/27 04:24:13;;;;;;;;;;;4.40;62.30;;;;;;5080049;28;20466;-80
2022/02/27 04:26:39;;;;;;;13.43;3.95;;;4.50;61.50;;;;;;5078005;28;19908;-79
2022/02/27 04:29:04;;;;;;;11.05;4.38;;;4.50;61.30;;;;;;5078566;28;20619;-79
2022/02/27 04:31:30;;;;;;;;;;;4.40;61.90;;;;;;5080571;28;20036;-78
2022/02/27 04:33:55;;;;;;;12.30;3.53;;;4.40;61.30;;;;;;5078753;28;19908;-79
2022/02/27 04:36:21;;;;;;;9.57;3.40;;;4.40;61.50;;;;;;5078113;28;20032;-79
2022/02/27 04:38:47;;;;;;;11.70;3.55;;;4.40;60.70;;;;;;5077793;28;20043;-79
2022/02/27 04:41:18;;;;;;;12.18;3.42;;;4.50;60.80;;;;;;5076501;28;20039;-80
2022/02/27 04:43:44;;;;;;;11.55;3.17;;;4.50;60.50;;;;;;5078201;28;20032;-79
2022/02/27 04:46:10;;;;;;;11.50;3.70;;;4.50;60.10;;;;;;5078180;28;20112;-78
2022/02/27 04:48:35;;;;;;;9.57;3.55;;;4.50;60.20;;;;;;5077684;28;20127;-79
2022/02/27 04:51:01;;;;;;;8.43;2.97;;;4.50;59.90;;;;;;5077906;28;20401;-79
2022/02/27 04:53:27;;;;;;;8.88;3.50;;;4.50;59.40;;;;;;5083859;28;20020;-80
2022/02/27 04:55:52;;;;;;;;;;;4.60;59.20;;;;;;5090679;28;20040;-78
2022/02/27 04:58:18;;;;;;;10.90;3.00;;;4.50;59.10;;;;;;5081676;28;19915;-79
2022/02/27 05:00:43;;;;;;;11.07;4.00;;;4.50;59.20;;;;;;5075653;28;20021;-79
2022/02/27 05:03:09;;;;;;;12.13;4.72;;;4.50;60.20;;;;;;5074903;28;20036;-80
2022/02/27 05:05:34;;;;;;;7.50;2.83;;;4.30;60.00;;;;;;5076654;28;20442;-78
2022/02/27 05:08:00;;;;;;;11.82;3.88;;;4.30;59.90;;;;;;5075930;28;20532;-78
2022/02/27 05:10:26;;;;;;;;;;;4.30;59.60;;;;;;5077262;28;20051;-78
2022/02/27 05:12:52;;;;;;;9.63;3.03;;;4.30;59.80;;;;;;5077578;28;19943;-79
2022/02/27 05:15:17;;;;;;;9.75;4.00;;;4.40;60.20;;;;;;5077189;28;20023;-79
2022/02/27 05:17:43;;;;;;;11.70;3.38;;;4.30;61.00;;;;;;5076107;28;20036;-79
2022/02/27 05:20:09;;;;;;;;;;;4.20;60.30;;;;;;5076461;28;20029;-79
2022/02/27 05:22:40;;;;;;;10.50;3.35;;;4.10;60.90;;;;;;5076729;28;19904;-79
2022/02/27 05:25:06;;;;;;;11.52;4.05;;;4.20;61.60;;;;;;5076375;28;20035;-80
2022/02/27 05:27:31;;;;;;;10.68;3.42;;;4.20;60.90;;;;;;5076100;28;20028;-78
2022/02/27 05:29:57;;;;;;;;;;;4.10;61.50;;;;;;5076871;28;20056;-80
2022/02/27 05:32:22;;;;;;;10.82;4.15;;;4.10;61.90;;;;;;5076702;28;20434;-79
2022/02/27 05:34:48;;;;;;;13.60;4.32;;;4.10;61.50;;;;;;5075663;28;20038;-77
2022/02/27 05:37:14;;;;;;;11.63;4.32;;;4.10;61.60;;;;;;5076817;28;20032;-78
2022/02/27 05:39:39;;;;;;;11.00;3.95;;;4.00;62.00;;;;;;5076255;28;20016;-78
2022/02/27 05:42:06;;;;;;;10.98;3.80;;;3.90;62.90;;;;;;5075699;28;20039;-79
2022/02/27 05:44:33;;;;;;;10.27;3.88;;;3.90;62.90;;;;;;5076890;28;20554;-79
2022/02/27 05:47:00;;;;;;;9.60;3.58;;;3.90;62.80;;;;;;5075651;28;20031;-79
2022/02/27 05:49:25;;;;;;;11.70;3.92;;;4.00;63.00;;;;;;5074829;28;20151;-79
2022/02/27 05:51:51;;;;;;;12.25;4.40;;;4.00;63.40;;;;;;5075369;28;20510;-79
2022/02/27 05:54:16;;;;;;;;;;;3.80;64.00;;;;;;5077625;28;20119;-79
2022/02/27 05:56:42;;;;;;;11.88;4.80;;;3.90;63.70;;;;;;5074941;28;19904;-79
2022/02/27 05:59:08;;;;;;;13.48;3.97;;;4.00;62.20;;;;;;5074073;28;20100;-79
2022/02/27 06:01:33;;;;;;;13.57;4.35;;;4.00;62.90;;;;;;5074035;28;20097;-79
2022/02/27 06:03:59;;;;;;;11.80;3.75;;;4.00;62.90;;;;;;5073909;28;20021;-79
2022/02/27 06:06:25;;;;;;;14.48;3.72;;;4.00;62.90;;;;;;5075253;28;20405;-80
2022/02/27 06:08:50;;;;;;;15.05;5.07;;;4.10;62.60;;;;;;5074330;28;20040;-79
2022/02/27 06:11:16;;;;;;;14.98;3.75;;;4.10;61.60;;;;;;5074868;28;20036;-79
2022/02/27 06:13:41;;;;;;;12.65;3.75;;;4.20;60.90;;;;;;5072654;28;20017;-78
2022/02/27 06:16:07;;;;;;;;;;;4.20;60.60;;;;;;5074416;28;20079;-79
2022/02/27 06:18:32;;;;;;;16.13;4.63;;;4.30;60.90;;;;;;5074311;28;19905;-79
2022/02/27 06:20:58;;;;;;;15.63;4.20;;;4.30;60.80;;;;;;5077115;28;20031;-79
2022/02/27 06:23:24;;;;;;;13.95;3.80;;;4.30;60.70;;;;;;5075136;28;20630;-80
2022/02/27 06:25:49;;;;;;;;;;;4.30;60.70;;;;;;5076265;28;20051;-79
2022/02/27 06:28:15;;;;;;;15.63;4.05;;;4.30;61.10;;;;;;5075889;28;19970;-79
2022/02/27 06:30:41;;;;;;;16.13;5.13;;;4.30;60.70;;;;;;5075516;28;20791;-79
2022/02/27 06:33:06;;;;;;;9.50;4.20;;;4.60;60.00;;;;;;5076711;28;20032;-79
2022/02/27 06:35:32;;;;;;;9.05;4.00;;;4.80;58.80;;;;;;5076033;28;20058;-79
2022/02/27 06:37:58;;;;;;;12.77;4.47;;;5.00;58.20;;;;;;5076868;28;20059;-79
2022/02/27 06:40:23;;;;;;;;;;;5.10;57.50;;;;;;5075814;28;20067;-79
2022/02/27 06:42:50;;;;;;;16.08;5.40;;;5.00;57.60;;;;;;5077110;28;19905;-78
2022/02/27 06:45:16;;;;;;;13.15;4.15;;;5.10;57.20;;;;;;5075117;28;20077;-79
2022/02/27 06:47:42;;;;;;;9.55;3.75;;;5.10;56.50;;;;;;5075613;28;20025;-79
2022/02/27 06:50:09;;;;;;;15.60;4.07;;;5.20;56.30;;;;;;5075889;28;20042;-80
2022/02/27 06:52:35;;;;;;;5.85;2.63;;;5.50;55.80;;;;;;5077843;28;20032;-79
2022/02/27 06:55:01;;;;;;;12.90;4.07;;;5.70;54.90;;;;;;5075876;28;20572;-79
2022/02/27 06:57:26;;;;;;;19.63;3.03;;;6.00;54.00;;;;;;5075509;28;20362;-80
2022/02/27 06:59:52;;;;;;;12.00;4.13;;;6.10;53.00;;;;;;5075343;28;20032;-78
2022/02/27 07:02:18;;;;;;;9.10;4.22;;;6.10;52.80;;;;;;5077124;28;20029;-80
2022/02/27 07:04:43;;;;;;;;;;;6.20;52.20;;;;;;5075900;28;20130;-79
2022/02/27 07:07:09;;;;;;;9.05;2.90;;;6.20;52.60;;;;;;5075571;28;20408;-79
2022/02/27 07:09:35;;;;;;;12.25;3.65;;;6.20;52.30;;;;;;5075566;28;20113;-79
2022/02/27 07:12:00;;;;;;;10.43;3.72;;;6.10;52.10;;;;;;5075932;28;20123;-79
2022/02/27 07:14:26;;;;;;;10.48;3.40;;;6.10;52.20;;;;;;5074535;28;20031;-78
2022/02/27 07:16:52;;;;;;;;;;;6.00;52.10;;;;;;5076570;28;20492;-79
2022/02/27 07:19:18;;;;;;;10.88;3.25;;;6.10;52.10;;;;;;5076040;28;19908;-79
2022/02/27 07:21:44;;;;;;;7.57;2.70;;;6.10;51.70;;;;;;5073316;28;20545;-79
2022/02/27 07:24:11;;;;;;;9.00;3.05;;;6.10;52.00;;;;;;5074537;28;20112;-79
2022/02/27 07:26:37;;;;;;;9.70;3.80;;;6.00;52.20;;;;;;5076090;28;20028;-79
2022/02/27 07:29:03;;;;;;;9.82;2.88;;;6.10;51.70;;;;;;5087206;28;20063;-79
2022/02/27 07:31:30;;;;;;;12.13;4.47;;;6.10;51.70;;;;;;5087965;28;20028;-78
2022/02/27 07:33:55;;;;;;;13.70;4.45;;;6.10;51.80;;;;;;5074135;28;20021;-79
2022/02/27 07:36:21;;;;;;;12.60;5.10;;;6.00;52.10;;;;;;5075270;28;20055;-79
2022/02/27 07:38:47;;;;;;;14.38;5.63;;;6.10;52.10;;;;;;5073752;28;20119;-79
2022/02/27 07:41:13;;;;;;;16.17;5.35;;;6.10;52.10;;;;;;5073826;28;20024;-79
2022/02/27 07:43:39;;;;;;;;;;;6.20;51.70;;;;;;5073843;28;20629;-78
2022/02/27 07:46:04;;;;;;;8.52;3.50;;;6.40;51.40;;;;;;5074601;28;19908;-79
2022/02/27 07:48:30;;;;;;;13.70;4.20;;;6.40;50.90;;;;;;5074924;28;20044;-79
2022/02/27 07:50:56;;;;;;;14.38;5.40;;;6.40;50.90;;;;;;5073600;28;20043;-79
2022/02/27 07:53:22;;;;;;;13.85;4.10;;;6.60;50.70;;;;;;5072657;28;20036;-78
2022/02/27 07:55:47;;;;;;;6.95;3.53;;;6.60;50.50;;;;;;5073843;28;20036;-79
2022/02/27 07:58:14;;;;;;;;;;;6.60;50.10;;;;;;5075292;28;20374;-80
2022/02/27 08:00:40;;;;;;;10.95;4.22;;;6.60;50.40;;;;;;5073189;28;19908;-78
2022/02/27 08:03:09;;;;;;;10.07;3.95;;;6.70;50.80;;;;;;5075062;28;20024;-79
2022/02/27 08:05:35;;;;;;;12.85;4.60;;;6.90;49.50;;;;;;5075460;28;20028;-79
2022/02/27 08:08:00;;;;;;;9.60;3.90;;;7.00;49.20;;;;;;5074283;28;20024;-78
2022/02/27 08:10:27;;;;;;;;;;;7.10;48.90;;;;;;5074803;28;20086;-79
2022/02/27 08:12:53;;;;;;;10.82;2.67;;;7.30;47.80;;;;;;5073224;28;19923;-79
2022/02/27 08:15:20;;;;;;;9.05;2.85;;;7.40;47.90;;;;;;5075414;28;20044;-78
2022/02/27 08:17:46;;;;;;;;;;;7.40;48.10;;;;;;5075701;28;20065;-79
2022/02/27 08:20:12;;;;;;;7.90;2.60;;;7.70;46.90;;;;;;5076227;28;19973;-80
2022/02/27 08:22:39;;;;;;;9.50;2.30;;;7.80;46.40;;;;;;5076060;28;20025;-79
2022/02/27 08:25:06;;;;;;;8.50;2.47;;;8.10;45.00;;;;;;5076956;28;20036;-79
2022/02/27 08:27:32;;;;;;;9.40;2.20;;;8.20;44.90;;;;;;5076201;28;20058;-80
2022/02/27 08:29:58;;;;;;;5.90;2.38;;;8.30;44.50;;;;;;5077272;28;20048;-79
2022/02/27 08:32:23;;;;;;;9.13;2.13;;;8.30;43.60;;;;;;5076640;28;20028;-79
2022/02/27 08:34:49;;;;;;;;;;;8.20;43.90;;;;;;5077320;28;20028;-78
2022/02/27 08:37:14;;;;;;;6.78;2.60;;;8.30;43.60;;;;;;5079359;28;19998;-80
2022/02/27 08:39:40;;;;;;;;;;;8.20;43.00;;;;;;5079880;28;20040;-78
2022/02/27 08:42:06;;;;;;;6.63;1.92;;;8.10;43.60;;;;;;5080073;28;19911;-79
2022/02/27 08:44:35;;;;;;;8.23;2.97;;;8.20;43.20;;;;;;5079749;28;20037;-79
2022/02/27 08:47:04;;;;;;;10.35;2.78;;;8.30;43.30;;;;;;5080685;28;20025;-79
2022/02/27 08:49:31;;;;;;;9.52;3.58;;;8.40;43.00;;;;;;5081460;28;20036;-78
2022/02/27 08:51:57;;;;;;;15.77;2.65;;;8.40;42.90;;;;;;5080246;28;20028;-79
2022/02/27 08:54:23;;;;;;;10.55;2.40;;;8.40;42.60;;;;;;5080655;28;20513;-78
2022/02/27 08:56:49;;;;;;;6.00;2.28;;;8.20;42.70;;;;;;5079193;28;20040;-79
2022/02/27 08:59:14;;;;;;;5.20;1.98;;;8.20;43.30;;;;;;5081465;28;20059;-78
2022/02/27 09:01:40;;;;;;;;;;;8.30;43.00;;;;;;5081195;28;20079;-77
2022/02/27 09:04:05;;;;;;;9.70;2.45;;;8.40;43.30;;;;;;5082833;28;19915;-79
2022/02/27 09:06:31;;;;;;;13.35;2.67;;;8.70;42.30;;;;;;5081006;28;20028;-79
2022/02/27 09:08:57;;;;;;;9.85;3.60;;;8.50;42.20;;;;;;5078719;28;20033;-79
2022/02/27 09:11:22;;;;;;;13.50;3.80;;;8.60;42.60;;;;;;5079975;28;20047;-80
2022/02/27 09:13:48;;;;;;;;;;;8.50;42.20;;;;;;5082572;28;20024;-78
2022/02/27 09:16:14;;;;;;;9.35;2.88;;;8.50;42.20;;;;;;5080111;28;19915;-79
2022/02/27 09:18:40;;;;;;;11.93;2.78;;;8.50;42.60;;;;;;5079814;28;20016;-80
2022/02/27 09:21:07;;;;;;;10.13;3.05;;;8.40;42.40;;;;;;5078719;28;20035;-79
2022/02/27 09:23:33;;;;;;;7.63;2.40;;;8.40;42.40;;;;;;5080505;28;20115;-79
2022/02/27 09:25:58;;;;;;;8.35;2.42;;;8.40;42.30;;;;;;5081142;28;20078;-79
2022/02/27 09:28:24;;;;;;;6.28;2.20;;;8.60;42.10;;;;;;5081573;28;20029;-80
2022/02/27 09:30:50;;;;;;;10.00;3.40;;;8.90;42.00;;;;;;5081505;28;20070;-80
2022/02/27 09:33:16;;;;;;;11.80;3.83;;;9.40;40.80;;;;;;5082503;28;20093;-79
2022/02/27 09:35:42;;;;;;;7.43;2.85;;;9.90;40.10;;;;;;5079563;28;20500;-79
2022/02/27 09:38:08;;;;;;;;;;;10.40;39.60;;;;;;5084148;28;20033;-79
2022/02/27 09:40:34;;;;;;;7.35;2.83;;;10.90;37.90;;;;;;5082890;28;19915;-79
2022/02/27 09:43:00;;;;;;;;;;;11.20;37.20;;;;;;5080814;28;20036;-79
2022/02/27 09:45:26;;;;;;;12.02;5.22;;;11.30;37.00;;;;;;5073929;28;19908;-84
2022/02/27 09:47:53;;;;;;;9.07;3.20;;;11.50;36.50;;;;;;5072708;28;20024;-80
2022/02/27 09:50:21;;;;;;;10.15;3.88;;;11.80;35.50;;;;;;5070928;28;20040;-85
2022/02/27 09:52:47;;;;;;;11.23;2.95;;;12.10;35.50;;;;;;5069676;28;20021;-85
2022/02/27 09:55:14;;;;;;;9.05;2.92;;;12.30;34.40;;;;;;5071016;28;20028;-83
2022/02/27 09:57:46;;;;;;;10.95;3.33;;;12.80;33.20;;;;;;5069485;28;20040;-84
2022/02/27 10:00:16;;;;;;;11.52;3.47;;;12.80;33.80;;;;;;5069726;28;20037;-84
2022/02/27 10:03:07;;;;;;;10.10;3.40;;;13.10;32.00;;;;;;5071122;28;20031;-83
2022/02/27 10:05:44;;;;;;;10.80;2.50;;;13.00;31.60;;;;;;5079407;28;20039;-84
2022/02/27 10:08:10;;;;;;;8.80;2.85;;;12.70;32.50;;;;;;5068912;28;20025;-82
2022/02/27 10:10:39;;;;;;;10.07;3.42;;;13.00;31.90;;;;;;5068462;28;20127;-82
2022/02/27 10:13:08;;;;;;;8.80;3.65;;;12.90;31.70;;;;;;5071253;28;20092;-81
2022/02/27 10:15:35;;;;;;;9.25;2.50;;;12.80;31.20;;;;;;5069022;28;20032;-85
2022/02/27 10:18:13;;;;;;;4.90;2.25;;;12.80;31.90;;;;;;5069021;28;20025;-82
2022/02/27 10:20:40;;;;;;;5.95;2.60;;;13.00;32.10;;;;;;5068675;28;20040;-81
2022/02/27 10:23:06;;;;;;;6.28;2.70;;;12.90;31.70;;;;;;5068996;28;20036;-83
2022/02/27 10:25:31;;;;;;;;;;;13.30;31.00;;;;;;5069132;28;20028;-85
2022/02/27 10:28:05;;;;;;;5.50;2.58;;;13.30;30.00;;;;;;5072916;28;19904;-80
2022/02/27 10:30:37;;;;;;;8.90;3.08;;;13.00;30.10;;;;;;5077506;28;20117;-80
2022/02/27 10:33:05;;;;;;;9.27;2.85;;;12.50;31.40;;;;;;5069530;28;20025;-79
2022/02/27 10:35:50;;;;;;;8.77;3.22;;;12.10;31.70;;;;;;5076624;28;20104;-79
2022/02/27 10:38:46;;;;;;;8.50;3.13;;;11.60;32.20;;;;;;5079599;28;20028;-80
2022/02/27 10:41:16;;;;;;;7.13;3.00;;;11.00;33.90;;;;;;5081116;28;20029;-79
2022/02/27 10:43:43;;;;;;;8.23;2.90;;;10.60;34.30;;;;;;5080289;28;20120;-79
2022/02/27 10:46:11;;;;;;;9.60;2.92;;;10.40;34.60;;;;;;5078405;28;20066;-79
2022/02/27 10:48:37;;;;;;;9.15;2.65;;;10.30;34.70;;;;;;5080117;28;20017;-78
2022/02/27 10:51:11;;;;;;;7.47;2.60;;;10.20;35.00;;;;;;5077139;28;20063;-79
2022/02/27 10:53:40;;;;;;;8.13;2.78;;;10.10;36.50;;;;;;5080240;28;20515;-79
2022/02/27 10:56:07;;;;;;;6.50;2.33;;;10.10;35.20;;;;;;5077636;28;20058;-79
2022/02/27 10:58:39;;;;;;;6.30;1.88;;;10.10;35.70;;;;;;5080603;28;20031;-79
2022/02/27 11:01:22;;;;;;;6.75;2.05;;;10.10;35.10;;;;;;5078510;28;20594;-79
2022/02/27 11:03:49;;;;;;;7.47;2.55;;;10.10;35.30;;;;;;5077496;28;20086;-79
2022/02/27 11:06:16;;;;;;;12.63;4.50;;;10.00;35.30;;;;;;5076658;28;20031;-79
2022/02/27 11:08:42;;;;;;;15.00;4.60;;;9.80;35.70;;;;;;5077178;28;20038;-79
2022/02/27 11:11:09;;;;;;;7.80;2.38;;;9.90;35.70;;;;;;5079970;28;20074;-79
2022/02/27 11:13:35;;;;;;;6.75;2.83;;;10.00;34.90;;;;;;5078526;28;20129;-79
2022/02/27 11:16:02;;;;;;;8.65;2.17;;;9.90;35.40;;;;;;5078136;28;20051;-79
2022/02/27 11:18:28;;;;;;;6.18;1.92;;;9.80;34.70;;;;;;5076668;28;20099;-79
2022/02/27 11:20:56;;;;;;;5.90;2.25;;;9.60;35.60;;;;;;5076619;28;20059;-77
2022/02/27 11:23:22;;;;;;;9.52;2.15;;;9.60;36.10;;;;;;5078139;28;20032;-79
2022/02/27 11:25:48;;;;;;;5.43;2.00;;;9.50;35.60;;;;;;5081966;28;20028;-79
2022/02/27 11:28:16;;;;;;;8.88;3.20;;;9.50;36.10;;;;;;5078165;28;20032;-79
2022/02/27 11:30:46;;;;;;;12.73;1.88;;;9.60;36.10;;;;;;5077005;28;20048;-79
2022/02/27 11:33:22;;;;;;;8.50;2.50;;;9.70;35.00;;;;;;5077230;28;20032;-80
2022/02/27 11:35:49;;;;;;;6.38;1.95;;;9.60;35.60;;;;;;5078921;28;20503;-79
2022/02/27 11:38:20;;;;;;;10.27;4.50;;;9.70;35.20;;;;;;5077919;28;20032;-79
2022/02/27 11:40:46;;;;;;;8.30;2.50;;;9.70;35.00;;;;;;5077642;28;20444;-81
2022/02/27 11:43:20;;;;;;;7.05;2.72;;;9.50;36.00;;;;;;5077690;28;20101;-79
2022/02/27 11:45:46;;;;;;;6.35;2.15;;;9.60;35.50;;;;;;5077752;28;20029;-80
2022/02/27 11:48:12;;;;;;;4.32;1.73;;;9.70;35.80;;;;;;5079174;28;20073;-79
2022/02/27 11:50:40;;;;;;;5.07;1.77;;;9.80;35.00;;;;;;5081441;28;20032;-79
2022/02/27 11:53:23;;;;;;;9.32;2.55;;;9.80;34.30;;;;;;5078115;28;20056;-79
2022/02/27 11:55:50;;;;;;;7.20;2.42;;;9.70;35.20;;;;;;5077500;28;20028;-78
2022/02/27 11:58:37;;;;;;;7.88;1.80;;;9.70;34.80;;;;;;5077654;28;20020;-79
2022/02/27 12:01:04;;;;;;;9.02;2.55;;;9.70;34.50;;;;;;5078823;28;20028;-79
2022/02/27 12:03:29;;;;;;;5.38;2.03;;;9.80;34.60;;;;;;5077620;28;20603;-79
2022/02/27 12:05:56;;;;;;;6.15;2.15;;;9.90;34.20;;;;;;5078649;28;20032;-79
2022/02/27 12:08:45;;;;;;;5.78;2.20;;;10.00;34.70;;;;;;5078667;28;20036;-80
2022/02/27 12:11:27;;;;;;;5.38;2.00;;;10.00;34.20;;;;;;5079100;28;20040;-80
2022/02/27 12:13:53;;;;;;;7.82;2.08;;;9.90;34.20;;;;;;5083522;28;20032;-77
2022/02/27 12:16:40;;;;;;;5.45;2.08;;;9.90;34.30;;;;;;5083003;28;20031;-80
2022/02/27 12:19:24;;;;;;;7.38;1.92;;;10.10;34.30;;;;;;5084124;28;20042;-79
2022/02/27 12:21:52;;;;;;;11.95;3.20;;;10.10;34.10;;;;;;5084906;28;20055;-79
2022/02/27 12:24:27;;;;;;;5.25;1.85;;;10.00;34.30;;;;;;5083159;28;20048;-79
2022/02/27 12:27:00;;;;;;;6.85;2.33;;;10.10;33.80;;;;;;5083692;28;20032;-78
2022/02/27 12:29:47;;;;;;;8.07;2.83;;;10.00;33.70;;;;;;5080150;28;20051;-79
2022/02/27 12:32:21;;;;;;;;;;;10.00;33.30;;;;;;5082564;28;20052;-78
2022/02/27 12:34:52;;;;;;;6.82;2.85;;;9.80;33.80;;;;;;5082257;28;19908;-79
2022/02/27 12:37:18;;;;;;;4.53;1.67;;;9.80;34.20;;;;;;5082991;28;20025;-79
2022/02/27 12:39:46;;;;;;;8.00;2.50;;;10.00;34.00;;;;;;5091229;28;20032;-80
2022/02/27 12:42:15;;;;;;;9.43;2.33;;;10.10;33.90;;;;;;5088164;28;20092;-79
2022/02/27 12:44:43;;;;;;;7.78;2.05;;;10.30;33.60;;;;;;5078277;28;20128;-78
2022/02/27 12:47:13;;;;;;;10.60;2.05;;;10.20;32.80;;;;;;5080989;28;20055;-79
2022/02/27 12:52:38;;;;;;;10.43;2.08;;;10.10;33.10;;;;;;5080505;28;20490;-80
2022/02/27 12:55:33;;;;;;;7.18;2.60;;;10.10;33.30;;;;;;5078679;28;20028;-79
2022/02/27 12:58:02;;;;;;;9.52;2.80;;;9.90;33.20;;;;;;5067989;28;20481;-79
2022/02/27 13:00:32;;;;;;;6.35;2.00;;;9.80;33.90;;;;;;5082499;28;20027;-79
2022/02/27 13:02:58;;;;;;;6.22;2.50;;;10.00;33.50;;;;;;5081790;28;20032;-79
2022/02/27 13:05:24;;;;;;;;;;;10.10;33.60;;;;;;5081156;28;20107;-78